Time;durP1;ratioP1;P1;durP2;ratioP2;P2;SDS_P1;SDS_P2;PMS_P1;PMS_P2;Temp;Humidity;BMP_temperature;BMP_pressure;BME280_temperature;BME280_humidity;BME280_pressure;Samples;Min_cycle;Max_cycle;Signal;HPM_P1;HPM_P2
2022/08/22 00:02:43;;;;;;;40.52;4.53;;;;;;;;;;1506755;94;21154;-80
2022/08/22 00:05:18;;;;;;;50.23;4.00;;;;;;;;;;1521984;94;21543;-84
2022/08/22 00:08:07;;;;;;;32.23;3.70;;;;;;;;;;1465893;98;21548;-84
2022/08/22 00:10:52;;;;;;;30.75;3.25;;;;;;;;;;1445638;98;21074;-81
2022/08/22 00:13:38;;;;;;;51.85;4.08;;;;;;;;;;1437929;98;21370;-82
2022/08/22 00:16:23;;;;;;;40.23;3.92;;;;;;;;;;1467114;96;21022;-82
2022/08/22 00:18:55;;;;;;;44.63;4.40;;;;;;;;;;1467184;96;21072;-82
2022/08/22 00:21:28;;;;;;;41.13;4.10;;;;;;;;;;1464895;96;21656;-83
2022/08/22 00:24:12;;;;;;;;;;;;;;;;;;1472779;96;21562;-83
2022/08/22 00:26:39;;;;;;;;;;;;;;;;;;1470004;97;20196;-82
2022/08/22 00:29:18;;;;;;;38.48;3.52;;;;;;;;;;1467296;97;20149;-83
2022/08/22 00:31:47;;;;;;;46.35;3.98;;;;;;;;;;1467293;97;21092;-84
2022/08/22 00:34:23;;;;;;;49.73;3.98;;;;;;;;;;1446170;99;21023;-85
2022/08/22 00:37:04;;;;;;;57.75;5.33;;;;;;;;;;1446142;99;21024;-84
2022/08/22 00:39:45;;;;;;;54.05;5.85;;;;;;;;;;1401860;100;21046;-84
2022/08/22 00:42:36;;;;;;;61.35;5.72;;;;;;;;;;1403893;102;21089;-82
2022/08/22 00:45:22;;;;;;;55.85;4.70;;;;;;;;;;1413222;100;21038;-88
2022/08/22 00:47:52;;;;;;;50.78;5.00;;;;;;;;;;1432699;99;21007;-87
2022/08/22 00:50:33;;;;;;;54.18;5.53;;;;;;;;;;1462788;95;21039;-82
2022/08/22 00:53:18;;;;;;;53.20;4.62;;;;;;;;;;1489906;94;21584;-82
2022/08/22 00:56:21;;;;;;;56.90;5.53;;;;;;;;;;1487755;96;20989;-81
2022/08/22 00:59:19;;;;;;;46.23;5.20;;;;;;;;;;1491525;96;21020;-82
2022/08/22 01:01:58;;;;;;;64.87;4.85;;;;;;;;;;1491160;96;20989;-83
2022/08/22 01:04:33;;;;;;;68.33;6.45;;;;;;;;;;1446556;99;21058;-82
2022/08/22 01:07:17;;;;;;;68.45;5.65;;;;;;;;;;1446377;96;21112;-83
2022/08/22 01:10:07;;;;;;;50.17;5.55;;;;;;;;;;1446549;99;21000;-83
2022/08/22 01:12:50;;;;;;;63.95;5.28;;;;;;;;;;1453755;96;21590;-83
2022/08/22 01:15:22;;;;;;;59.88;5.50;;;;;;;;;;1446345;99;21647;-82
2022/08/22 01:18:20;;;;;;;55.43;5.65;;;;;;;;;;1465722;97;20996;-81
2022/08/22 01:21:18;;;;;;;78.85;6.45;;;;;;;;;;1489429;96;21043;-82
2022/08/22 01:24:02;;;;;;;77.58;6.87;;;;;;;;;;1489311;96;21049;-83
2022/08/22 01:26:40;;;;;;;56.33;6.17;;;;;;;;;;1489021;96;21028;-83
2022/08/22 01:29:10;;;;;;;66.50;5.70;;;;;;;;;;1443200;99;21112;-82
2022/08/22 01:31:57;;;;;;;81.82;6.30;;;;;;;;;;1464585;97;20960;-84
2022/08/22 01:34:39;;;;;;;76.25;6.83;;;;;;;;;;1476013;97;21246;-84
2022/08/22 01:37:24;;;;;;;74.60;6.08;;;;;;;;;;1488565;94;20985;-81
2022/08/22 01:40:23;;;;;;;69.37;6.22;;;;;;;;;;1521604;94;21096;-81
2022/08/22 01:43:08;;;;;;;54.98;6.17;;;;;;;;;;1594124;89;21564;-82
2022/08/22 01:45:55;;;;;;;59.65;4.78;;;;;;;;;;1598114;89;20950;-80
2022/08/22 01:48:36;;;;;;;56.25;5.55;;;;;;;;;;1597977;89;21587;-83
2022/08/22 01:51:25;;;;;;;61.42;6.03;;;;;;;;;;1598213;89;20993;-86
2022/08/22 01:54:04;;;;;;;54.18;6.15;;;;;;;;;;1605427;88;21030;-83
2022/08/22 01:56:35;;;;;;;48.17;5.22;;;;;;;;;;1537500;93;20994;-82
2022/08/22 01:59:16;;;;;;;57.55;5.00;;;;;;;;;;1534473;93;21665;-82
2022/08/22 02:01:45;;;;;;;63.73;6.75;;;;;;;;;;1489593;96;21039;-83
2022/08/22 02:04:20;;;;;;;73.07;7.08;;;;;;;;;;1487152;96;21016;-82
2022/08/22 02:07:23;;;;;;;63.90;5.30;;;;;;;;;;1473203;96;21089;-82
2022/08/22 02:10:07;;;;;;;55.60;5.25;;;;;;;;;;1474653;97;21021;-82
2022/08/22 02:12:42;;;;;;;68.83;6.45;;;;;;;;;;1474753;97;20982;-82
2022/08/22 02:15:24;;;;;;;54.65;5.33;;;;;;;;;;1486330;95;21021;-85
2022/08/22 02:17:53;;;;;;;57.95;6.05;;;;;;;;;;1505152;95;21050;-83
2022/08/22 02:20:25;;;;;;;66.82;5.90;;;;;;;;;;1505208;94;21505;-81
2022/08/22 02:23:09;;;;;;;85.72;7.33;;;;;;;;;;1505037;95;21005;-82
2022/08/22 02:25:57;;;;;;;50.58;5.78;;;;;;;;;;1505127;94;21537;-80
2022/08/22 02:28:30;;;;;;;72.50;6.47;;;;;;;;;;1504871;94;21076;-83
2022/08/22 02:31:05;;;;;;;64.60;6.40;;;;;;;;;;1505313;95;21056;-82
2022/08/22 02:33:40;;;;;;;66.97;6.87;;;;;;;;;;1505157;94;21497;-83
2022/08/22 02:36:15;;;;;;;87.20;6.50;;;;;;;;;;1505114;95;21089;-82
2022/08/22 02:38:50;;;;;;;74.80;7.87;;;;;;;;;;1504936;94;20934;-81
2022/08/22 02:41:25;;;;;;;78.52;6.58;;;;;;;;;;1497192;94;21018;-82
2022/08/22 02:43:54;;;;;;;67.95;6.12;;;;;;;;;;1516002;90;21021;-81
2022/08/22 02:46:52;;;;;;;70.17;6.60;;;;;;;;;;1557867;91;21012;-81
2022/08/22 02:49:41;;;;;;;53.02;5.75;;;;;;;;;;1564456;90;21011;-82
2022/08/22 02:52:27;;;;;;;53.95;5.65;;;;;;;;;;1564624;89;21028;-84
2022/08/22 02:54:57;;;;;;;74.67;7.20;;;;;;;;;;1620774;86;20963;-85
2022/08/22 02:57:48;;;;;;;72.42;6.15;;;;;;;;;;1640297;82;21020;-86
2022/08/22 03:00:24;;;;;;;53.92;5.75;;;;;;;;;;1726601;82;21034;-85
2022/08/22 03:03:18;;;;;;;60.90;5.97;;;;;;;;;;1727635;81;20912;-81
2022/08/22 03:05:47;;;;;;;68.80;5.50;;;;;;;;;;1726388;82;20989;-83
2022/08/22 03:08:29;;;;;;;65.67;6.50;;;;;;;;;;1732103;81;20965;-86
2022/08/22 03:11:16;;;;;;;60.00;5.83;;;;;;;;;;1730552;82;20921;-82
2022/08/22 03:13:56;;;;;;;63.33;6.37;;;;;;;;;;1731161;82;21011;-82
2022/08/22 03:16:41;;;;;;;68.65;6.30;;;;;;;;;;1729421;82;21039;-84
2022/08/22 03:19:25;;;;;;;60.70;6.12;;;;;;;;;;1685654;84;20996;-83
2022/08/22 03:22:03;;;;;;;66.50;6.78;;;;;;;;;;1686981;84;20964;-85
2022/08/22 03:24:35;;;;;;;52.13;6.50;;;;;;;;;;1694461;84;21007;-84
2022/08/22 03:27:26;;;;;;;56.77;5.97;;;;;;;;;;1697560;84;20944;-86
2022/08/22 03:29:58;;;;;;;61.08;6.60;;;;;;;;;;1700508;84;20990;-84
2022/08/22 03:32:44;;;;;;;60.73;5.80;;;;;;;;;;1677707;84;21050;-81
2022/08/22 03:35:11;;;;;;;80.28;7.60;;;;;;;;;;1678846;84;20962;-82
2022/08/22 03:37:39;;;;;;;82.45;6.60;;;;;;;;;;1677367;85;21523;-83
2022/08/22 03:40:27;;;;;;;70.80;6.87;;;;;;;;;;1677260;85;20970;-81
2022/08/22 03:43:25;;;;;;;70.80;7.75;;;;;;;;;;1677683;85;20971;-80
2022/08/22 03:46:01;;;;;;;77.75;7.58;;;;;;;;;;1662701;85;21026;-84
2022/08/22 03:48:45;;;;;;;74.92;6.97;;;;;;;;;;1657214;85;21680;-85
2022/08/22 03:51:20;;;;;;;70.95;6.75;;;;;;;;;;1659643;85;21004;-82
2022/08/22 03:54:05;;;;;;;78.17;7.35;;;;;;;;;;1600664;88;21027;-84
2022/08/22 03:56:37;;;;;;;74.50;6.42;;;;;;;;;;1600476;89;21014;-82
2022/08/22 03:59:23;;;;;;;85.00;6.35;;;;;;;;;;1609569;88;21033;-83
2022/08/22 04:02:18;;;;;;;70.12;6.72;;;;;;;;;;1612963;87;21054;-85
2022/08/22 04:05:17;;;;;;;83.50;7.08;;;;;;;;;;1614691;88;21030;-82
2022/08/22 04:08:07;;;;;;;57.80;6.17;;;;;;;;;;1614059;87;21001;-86
2022/08/22 04:11:06;;;;;;;62.90;6.37;;;;;;;;;;1598929;89;21601;-84
2022/08/22 04:13:51;;;;;;;61.13;6.35;;;;;;;;;;1602214;89;20927;-83
2022/08/22 04:16:23;;;;;;;75.30;7.10;;;;;;;;;;1603643;89;21085;-83
2022/08/22 04:19:21;;;;;;;67.10;6.05;;;;;;;;;;1575070;91;20974;-84
2022/08/22 04:22:03;;;;;;;58.08;5.67;;;;;;;;;;1560682;91;21646;-83
2022/08/22 04:24:41;;;;;;;89.00;7.03;;;;;;;;;;1557438;92;21054;-83
2022/08/22 04:27:29;;;;;;;57.73;6.55;;;;;;;;;;1554587;90;21090;-86
2022/08/22 04:30:07;;;;;;;57.80;5.78;;;;;;;;;;1578107;90;21578;-83
2022/08/22 04:32:45;;;;;;;72.12;6.35;;;;;;;;;;1645564;85;20977;-86
2022/08/22 04:35:33;;;;;;;73.52;5.90;;;;;;;;;;1647502;85;20993;-87
2022/08/22 04:38:09;;;;;;;69.55;6.47;;;;;;;;;;1644583;86;20988;-85
2022/08/22 04:40:42;;;;;;;58.92;5.60;;;;;;;;;;1639357;87;21431;-84
2022/08/22 04:43:14;;;;;;;49.23;5.60;;;;;;;;;;1647828;87;20962;-88
2022/08/22 04:45:46;;;;;;;63.38;6.40;;;;;;;;;;1644708;87;21486;-86
2022/08/22 04:48:25;;;;;;;40.08;5.70;;;;;;;;;;1647403;86;20911;-87
2022/08/22 04:50:53;;;;;;;58.78;5.95;;;;;;;;;;1625111;87;20934;-82
2022/08/22 04:53:41;;;;;;;78.17;7.47;;;;;;;;;;1615787;88;21557;-82
2022/08/22 04:56:16;;;;;;;61.83;6.67;;;;;;;;;;1615346;87;21061;-82
2022/08/22 04:58:47;;;;;;;53.55;5.25;;;;;;;;;;1616106;87;20898;-84
2022/08/22 05:01:19;;;;;;;76.33;6.65;;;;;;;;;;1619646;87;21007;-82
2022/08/22 05:03:57;;;;;;;64.58;6.85;;;;;;;;;;1619813;87;21042;-82
2022/08/22 05:06:27;;;;;;;56.30;6.45;;;;;;;;;;1588211;88;21073;-89
2022/08/22 05:08:55;;;;;;;53.55;5.00;;;;;;;;;;1588336;88;20931;-83
2022/08/22 05:11:22;;;;;;;57.75;5.47;;;;;;;;;;1588422;88;21010;-83
2022/08/22 05:13:52;;;;;;;46.63;6.00;;;;;;;;;;1588452;88;20987;-83
2022/08/22 05:16:21;;;;;;;61.83;6.10;;;;;;;;;;1466712;96;21048;-82
2022/08/22 05:18:50;;;;;;;64.97;6.70;;;;;;;;;;1507219;94;21866;-81
2022/08/22 05:21:19;;;;;;;60.88;5.60;;;;;;;;;;1507292;93;21054;-84
2022/08/22 05:23:54;;;;;;;65.50;7.22;;;;;;;;;;1507170;94;21106;-83
2022/08/22 05:26:20;;;;;;;61.83;7.12;;;;;;;;;;1508283;93;21026;-82
2022/08/22 05:28:52;;;;;;;63.63;6.47;;;;;;;;;;1479236;95;21010;-83
2022/08/22 05:31:24;;;;;;;70.32;7.72;;;;;;;;;;1508519;93;21034;-84
2022/08/22 05:33:54;;;;;;;52.70;6.33;;;;;;;;;;1507222;93;21009;-82
2022/08/22 05:36:22;;;;;;;51.85;6.70;;;;;;;;;;1511631;93;21584;-85
2022/08/22 05:38:55;;;;;;;52.70;6.20;;;;;;;;;;1541224;92;32233;-82
2022/08/22 05:41:27;;;;;;;62.33;6.60;;;;;;;;;;1543941;91;21096;-88
2022/08/22 05:43:54;;;;;;;47.03;6.53;;;;;;;;;;1526598;91;21526;-85
2022/08/22 05:46:41;;;;;;;53.40;7.03;;;;;;;;;;1514757;93;21050;-85
2022/08/22 05:49:17;;;;;;;52.67;6.25;;;;;;;;;;1491875;94;21052;-85
2022/08/22 05:52:04;;;;;;;50.45;5.83;;;;;;;;;;1491967;94;21069;-84
2022/08/22 05:54:32;;;;;;;48.38;6.50;;;;;;;;;;1510607;93;21086;-84
2022/08/22 05:57:02;;;;;;;43.85;5.70;;;;;;;;;;1513449;94;21050;-84
2022/08/22 05:59:30;;;;;;;44.00;5.22;;;;;;;;;;1515689;94;21049;-83
2022/08/22 06:02:11;;;;;;;47.55;5.67;;;;;;;;;;1513656;94;21041;-83
2022/08/22 06:04:59;;;;;;;49.40;6.42;;;;;;;;;;1513558;94;21045;-85
2022/08/22 06:07:34;;;;;;;47.88;5.60;;;;;;;;;;1483010;96;21593;-87
2022/08/22 06:10:21;;;;;;;49.38;6.22;;;;;;;;;;1484780;96;21035;-87
2022/08/22 06:12:56;;;;;;;45.58;5.92;;;;;;;;;;1480029;96;21011;-83
2022/08/22 06:15:35;;;;;;;48.17;6.70;;;;;;;;;;1443603;98;21060;-84
2022/08/22 06:18:04;;;;;;;38.17;5.78;;;;;;;;;;1444982;99;21052;-85
2022/08/22 06:20:42;;;;;;;51.08;6.22;;;;;;;;;;1443028;98;21109;-87
2022/08/22 06:23:11;;;;;;;40.17;5.00;;;;;;;;;;1444363;98;21549;-86
2022/08/22 06:25:39;;;;;;;39.55;5.50;;;;;;;;;;1444022;98;21130;-83
2022/08/22 06:28:09;;;;;;;42.13;5.72;;;;;;;;;;1442201;98;21083;-86
2022/08/22 06:30:37;;;;;;;38.83;5.58;;;;;;;;;;1443038;98;21135;-84
2022/08/22 06:33:09;;;;;;;51.92;6.33;;;;;;;;;;1449950;97;21634;-85
2022/08/22 06:38:27;;;;;;;46.25;5.83;;;;;;;;;;1454224;98;21026;-85
2022/08/22 06:40:53;;;;;;;42.60;5.33;;;;;;;;;;1451913;98;21069;-84
2022/08/22 06:43:23;;;;;;;45.65;4.42;;;;;;;;;;1481095;95;21065;-82
2022/08/22 06:45:50;;;;;;;40.40;5.62;;;;;;;;;;1472330;95;21026;-84
2022/08/22 06:48:18;;;;;;;37.65;4.72;;;;;;;;;;1472495;95;21087;-84
2022/08/22 06:50:47;;;;;;;45.85;4.75;;;;;;;;;;1480285;95;21491;-86
2022/08/22 06:53:16;;;;;;;47.55;6.33;;;;;;;;;;1482058;95;21065;-87
2022/08/22 06:55:46;;;;;;;41.25;5.53;;;;;;;;;;1481743;95;21052;-88
2022/08/22 06:58:15;;;;;;;50.73;5.35;;;;;;;;;;1472767;96;20997;-86
2022/08/22 07:00:41;;;;;;;31.35;4.72;;;;;;;;;;1473688;95;21063;-85
2022/08/22 07:03:35;;;;;;;37.10;5.37;;;;;;;;;;1504013;93;21123;-83
2022/08/22 07:06:02;;;;;;;38.20;4.95;;;;;;;;;;1482383;96;21078;-87
2022/08/22 07:08:30;;;;;;;37.00;6.17;;;;;;;;;;1479795;95;21038;-83
2022/08/22 07:11:17;;;;;;;39.08;4.83;;;;;;;;;;1497218;91;21089;-88
2022/08/22 07:13:46;;;;;;;31.75;4.80;;;;;;;;;;1518574;93;21017;-83
2022/08/22 07:16:12;;;;;;;35.10;5.37;;;;;;;;;;1526965;93;20990;-86
2022/08/22 07:18:47;;;;;;;47.88;5.45;;;;;;;;;;1527361;93;20997;-85
2022/08/22 07:21:31;;;;;;;46.75;4.95;;;;;;;;;;1513554;93;21025;-84
2022/08/22 07:24:00;;;;;;;44.00;5.30;;;;;;;;;;1513930;93;21021;-88
2022/08/22 07:26:35;;;;;;;36.10;4.62;;;;;;;;;;1514393;93;21090;-86
2022/08/22 07:29:13;;;;;;;44.08;5.45;;;;;;;;;;1439270;98;21026;-82
2022/08/22 07:31:52;;;;;;;34.00;4.37;;;;;;;;;;1441588;97;21066;-84
2022/08/22 07:34:31;;;;;;;29.42;4.58;;;;;;;;;;1438509;99;21048;-83
2022/08/22 07:37:02;;;;;;;44.80;5.05;;;;;;;;;;1415224;101;21122;-83
2022/08/22 07:39:36;;;;;;;44.67;4.47;;;;;;;;;;1416534;101;21100;-88
2022/08/22 07:42:11;;;;;;;35.73;4.12;;;;;;;;;;1444851;97;21040;-82
2022/08/22 07:45:05;;;;;;;50.73;5.03;;;;;;;;;;1470015;96;21072;-86
2022/08/22 07:47:38;;;;;;;30.32;3.90;;;;;;;;;;1490010;95;21195;-88
2022/08/22 07:50:07;;;;;;;37.78;4.25;;;;;;;;;;1495422;94;21161;-88
2022/08/22 07:52:36;;;;;;;38.25;4.17;;;;;;;;;;1504902;94;20958;-86
2022/08/22 07:55:09;;;;;;;35.70;4.35;;;;;;;;;;1482988;94;21001;-89
2022/08/22 07:57:40;;;;;;;41.98;4.62;;;;;;;;;;1484460;94;21057;-89
2022/08/22 08:00:12;;;;;;;38.40;4.25;;;;;;;;;;1495961;94;21188;-85
2022/08/22 08:02:48;;;;;;;31.85;4.30;;;;;;;;;;1536316;92;21069;-85
2022/08/22 08:05:16;;;;;;;37.13;3.65;;;;;;;;;;1503554;90;21127;-86
2022/08/22 08:07:44;;;;;;;38.75;3.98;;;;;;;;;;1571262;90;21057;-86
2022/08/22 08:10:13;;;;;;;31.40;4.95;;;;;;;;;;1569134;89;21415;-88
2022/08/22 08:12:43;;;;;;;33.67;4.10;;;;;;;;;;1572638;89;21025;-87
2022/08/22 08:15:12;;;;;;;29.07;3.62;;;;;;;;;;1612607;87;21025;-87
2022/08/22 08:17:39;;;;;;;35.70;3.98;;;;;;;;;;1622253;87;21182;-86
2022/08/22 08:20:09;;;;;;;23.73;3.98;;;;;;;;;;1617463;87;20981;-87
2022/08/22 08:22:37;;;;;;;30.08;3.40;;;;;;;;;;1618430;87;21521;-87
2022/08/22 08:25:04;;;;;;;22.17;3.20;;;;;;;;;;1608942;87;21661;-86
2022/08/22 08:30:30;;;;;;;29.45;4.05;;;;;;;;;;1606683;88;21042;-84
2022/08/22 08:32:58;;;;;;;30.68;3.27;;;;;;;;;;1613314;88;20938;-87
2022/08/22 08:35:31;;;;;;;29.80;3.83;;;;;;;;;;1608338;88;21042;-87
2022/08/22 08:38:25;;;;;;;32.67;4.67;;;;;;;;;;1610443;88;21034;-87
2022/08/22 08:40:58;;;;;;;29.02;4.35;;;;;;;;;;1575634;89;21028;-87
2022/08/22 08:43:43;;;;;;;24.07;3.72;;;;;;;;;;1632168;85;21609;-89
2022/08/22 08:46:15;;;;;;;21.20;3.92;;;;;;;;;;1597101;89;21034;-86
2022/08/22 08:48:59;;;;;;;23.50;3.37;;;;;;;;;;1598744;89;21539;-86
2022/08/22 08:54:36;;;;;;;20.35;2.87;;;;;;;;;;1597986;87;20982;-88
2022/08/22 08:57:20;;;;;;;23.20;3.80;;;;;;;;;;1579087;90;21010;-85
2022/08/22 09:00:13;;;;;;;30.15;3.80;;;;;;;;;;1605441;87;21469;-84
2022/08/22 09:03:16;;;;;;;23.22;2.85;;;;;;;;;;1607761;87;21037;-84
2022/08/22 09:05:44;;;;;;;;;;;;;;;;;;1606822;89;21529;-86
2022/08/22 09:08:19;;;;;;;23.80;3.55;;;;;;;;;;1607183;89;20434;-85
2022/08/22 09:11:13;;;;;;;28.90;4.03;;;;;;;;;;1610558;88;22326;-85
2022/08/22 09:14:03;;;;;;;16.82;3.67;;;;;;;;;;1565666;90;21091;-87
2022/08/22 09:17:03;;;;;;;25.30;3.72;;;;;;;;;;1561188;91;21081;-86
2022/08/22 09:19:45;;;;;;;33.23;3.50;;;;;;;;;;1558112;90;21081;-81
2022/08/22 09:22:36;;;;;;;37.83;4.75;;;;;;;;;;1562443;90;21047;-82
2022/08/22 09:25:21;;;;;;;33.42;3.27;;;;;;;;;;1560850;91;21070;-81
2022/08/22 09:28:03;;;;;;;31.93;3.35;;;;;;;;;;1558325;91;21098;-83
2022/08/22 09:30:35;;;;;;;31.07;3.70;;;;;;;;;;1557263;92;21546;-86
2022/08/22 09:33:02;;;;;;;;;;;;;;;;;;1517096;93;22413;-87
2022/08/22 09:35:43;;;;;;;34.67;3.52;;;;;;;;;;1522864;94;20121;-84
2022/08/22 09:38:27;;;;;;;20.45;3.00;;;;;;;;;;1484331;95;21038;-85
2022/08/22 09:41:25;;;;;;;25.50;4.72;;;;;;;;;;1483560;95;21052;-82
2022/08/22 09:44:12;;;;;;;18.15;3.58;;;;;;;;;;1485795;95;21373;-85
2022/08/22 09:46:47;;;;;;;22.22;3.65;;;;;;;;;;1483793;95;21113;-84
2022/08/22 09:49:16;;;;;;;33.40;4.08;;;;;;;;;;1495554;94;22303;-84
2022/08/22 09:52:10;;;;;;;20.37;3.35;;;;;;;;;;1492249;95;21071;-85
2022/08/22 09:54:44;;;;;;;28.35;3.33;;;;;;;;;;1482381;96;21144;-87
2022/08/22 09:57:26;;;;;;;25.70;3.37;;;;;;;;;;1455922;96;21092;-84
2022/08/22 10:00:14;;;;;;;24.83;3.10;;;;;;;;;;1443729;97;21046;-89
2022/08/22 10:02:52;;;;;;;32.48;4.70;;;;;;;;;;1457740;96;21830;-86
2022/08/22 10:05:22;;;;;;;27.58;2.90;;;;;;;;;;1457962;97;21601;-82
2022/08/22 10:08:09;;;;;;;19.12;2.80;;;;;;;;;;1455122;97;21165;-83
2022/08/22 10:10:57;;;;;;;16.75;2.33;;;;;;;;;;1456302;96;21377;-86
2022/08/22 10:13:29;;;;;;;30.20;3.15;;;;;;;;;;1459658;96;21122;-84
2022/08/22 10:16:32;;;;;;;28.45;2.83;;;;;;;;;;1459465;96;21124;-86
2022/08/22 10:19:10;;;;;;;25.97;3.00;;;;;;;;;;1452908;97;21069;-85
2022/08/22 10:22:05;;;;;;;23.77;3.22;;;;;;;;;;1448154;97;21076;-85
2022/08/22 10:24:57;;;;;;;23.22;3.67;;;;;;;;;;1430143;99;21507;-85
2022/08/22 10:27:38;;;;;;;26.70;3.17;;;;;;;;;;1446322;99;21058;-85
2022/08/22 10:30:13;;;;;;;28.60;2.85;;;;;;;;;;1429421;98;21619;-86
2022/08/22 10:33:14;;;;;;;28.27;2.70;;;;;;;;;;1444216;98;21071;-86
2022/08/22 10:35:52;;;;;;;31.52;2.95;;;;;;;;;;1445587;98;21122;-85
2022/08/22 10:38:24;;;;;;;22.25;3.10;;;;;;;;;;1451419;92;21040;-85
2022/08/22 10:40:54;;;;;;;42.62;3.40;;;;;;;;;;1541748;92;21037;-87
2022/08/22 10:43:40;;;;;;;29.07;3.22;;;;;;;;;;1556717;91;21006;-87
2022/08/22 10:46:09;;;;;;;32.28;3.67;;;;;;;;;;1560043;91;21515;-84
2022/08/22 10:48:47;;;;;;;29.30;3.37;;;;;;;;;;1488584;96;21066;-86
2022/08/22 10:51:19;;;;;;;25.85;3.08;;;;;;;;;;1480976;94;20993;-85
2022/08/22 10:54:01;;;;;;;28.32;2.47;;;;;;;;;;1450594;97;21000;-87
2022/08/22 10:56:39;;;;;;;38.10;3.12;;;;;;;;;;1521485;93;21048;-85
2022/08/22 10:59:33;;;;;;;33.60;3.37;;;;;;;;;;1524816;93;21036;-86
2022/08/22 11:02:19;;;;;;;40.28;3.75;;;;;;;;;;1523469;92;21605;-84
2022/08/22 11:05:08;;;;;;;37.30;4.20;;;;;;;;;;1515987;93;21118;-86
2022/08/22 11:07:47;;;;;;;55.05;4.70;;;;;;;;;;1514167;93;21149;-85
2022/08/22 11:10:44;;;;;;;39.88;3.87;;;;;;;;;;1516625;93;21218;-83
2022/08/22 11:13:15;;;;;;;34.98;4.12;;;;;;;;;;1493867;93;21231;-84
2022/08/22 11:16:03;;;;;;;43.15;4.17;;;;;;;;;;1483189;95;21117;-84
2022/08/22 11:18:49;;;;;;;31.25;3.98;;;;;;;;;;1480963;95;21641;-82
2022/08/22 11:21:27;;;;;;;25.80;2.90;;;;;;;;;;1491686;94;21108;-85
2022/08/22 11:24:00;;;;;;;42.35;3.67;;;;;;;;;;1515456;93;21047;-88
2022/08/22 11:26:35;;;;;;;27.55;3.05;;;;;;;;;;1484326;95;21045;-83
2022/08/22 11:29:07;;;;;;;22.05;3.20;;;;;;;;;;1484377;95;21107;-87
2022/08/22 11:31:48;;;;;;;32.55;3.15;;;;;;;;;;1499168;95;21018;-84
2022/08/22 11:34:32;;;;;;;39.35;3.25;;;;;;;;;;1486902;95;21033;-88
2022/08/22 11:37:07;;;;;;;32.95;2.92;;;;;;;;;;1479346;95;21087;-85
2022/08/22 11:39:46;;;;;;;27.50;2.83;;;;;;;;;;1468942;97;20947;-87
2022/08/22 11:42:24;;;;;;;28.57;3.75;;;;;;;;;;1444264;98;21569;-81
2022/08/22 11:44:53;;;;;;;40.60;3.62;;;;;;;;;;1411370;100;21748;-85
2022/08/22 11:47:23;;;;;;;21.62;2.42;;;;;;;;;;1410843;100;21161;-83
2022/08/22 11:50:08;;;;;;;28.60;2.92;;;;;;;;;;1415589;100;22216;-82
2022/08/22 11:52:49;;;;;;;27.27;2.47;;;;;;;;;;1408787;100;21064;-83
2022/08/22 11:55:41;;;;;;;21.55;2.70;;;;;;;;;;1415740;100;21073;-83
2022/08/22 11:58:13;;;;;;;31.80;3.10;;;;;;;;;;1380444;103;21140;-85
2022/08/22 12:00:46;;;;;;;23.10;2.83;;;;;;;;;;1368520;103;21617;-87
2022/08/22 12:03:18;;;;;;;38.02;3.00;;;;;;;;;;1417971;100;21398;-85
2022/08/22 12:06:06;;;;;;;32.98;3.15;;;;;;;;;;1394308;102;21679;-85
2022/08/22 12:08:36;;;;;;;26.68;2.15;;;;;;;;;;1393152;101;21104;-83
2022/08/22 12:11:23;;;;;;;29.55;2.75;;;;;;;;;;1426146;100;21572;-82
2022/08/22 12:13:52;;;;;;;27.82;2.30;;;;;;;;;;1415994;100;21057;-84
2022/08/22 12:16:24;;;;;;;21.77;3.10;;;;;;;;;;1424554;100;21145;-82
2022/08/22 12:18:54;;;;;;;25.37;3.42;;;;;;;;;;1431534;96;21086;-82
2022/08/22 12:21:29;;;;;;;30.65;2.70;;;;;;;;;;1490025;95;21526;-82
2022/08/22 12:24:21;;;;;;;17.95;2.65;;;;;;;;;;1562606;91;21038;-83
2022/08/22 12:26:51;;;;;;;38.28;3.05;;;;;;;;;;1579552;90;20991;-83
2022/08/22 12:29:29;;;;;;;21.05;2.37;;;;;;;;;;1556249;92;22212;-81
2022/08/22 12:32:14;;;;;;;26.12;3.30;;;;;;;;;;1553941;92;21055;-82
2022/08/22 12:34:56;;;;;;;25.15;2.30;;;;;;;;;;1556063;92;21083;-82
2022/08/22 12:37:34;;;;;;;18.15;2.77;;;;;;;;;;1616984;87;21538;-83
2022/08/22 12:40:22;;;;;;;25.68;2.60;;;;;;;;;;1642730;86;21026;-83
2022/08/22 12:43:03;;;;;;;22.70;2.50;;;;;;;;;;1639688;86;21098;-82
2022/08/22 12:45:44;;;;;;;21.30;2.70;;;;;;;;;;1641779;86;21529;-83
2022/08/22 12:48:21;;;;;;;16.10;2.55;;;;;;;;;;1639888;86;22671;-81
2022/08/22 12:51:03;;;;;;;20.27;2.20;;;;;;;;;;1656957;85;20967;-83
2022/08/22 12:53:50;;;;;;;26.57;2.58;;;;;;;;;;1669638;85;21026;-84
2022/08/22 12:56:43;;;;;;;21.60;2.62;;;;;;;;;;1655799;86;21405;-84
2022/08/22 12:59:28;;;;;;;18.20;2.62;;;;;;;;;;1664904;85;20955;-88
2022/08/22 13:01:57;;;;;;;18.32;2.33;;;;;;;;;;1667771;85;21519;-84
2022/08/22 13:04:25;;;;;;;17.52;2.50;;;;;;;;;;1669422;85;21053;-84
2022/08/22 13:06:54;;;;;;;22.90;2.70;;;;;;;;;;1668599;85;20963;-83
2022/08/22 13:09:32;;;;;;;13.55;2.17;;;;;;;;;;1677861;85;20926;-83
2022/08/22 13:12:01;;;;;;;25.50;2.67;;;;;;;;;;1670976;85;21562;-88
2022/08/22 13:14:29;;;;;;;19.37;2.40;;;;;;;;;;1608440;88;21009;-82
2022/08/22 13:16:57;;;;;;;17.50;2.92;;;;;;;;;;1610124;88;21058;-83
2022/08/22 13:19:28;;;;;;;13.98;2.80;;;;;;;;;;1609009;88;21654;-83
2022/08/22 13:22:10;;;;;;;26.73;3.25;;;;;;;;;;1608922;88;21103;-81
2022/08/22 13:24:48;;;;;;;18.52;2.25;;;;;;;;;;1574895;89;21079;-85
2022/08/22 13:27:20;;;;;;;14.30;1.90;;;;;;;;;;1603200;87;21087;-86
2022/08/22 13:29:52;;;;;;;10.30;2.17;;;;;;;;;;1615486;88;21037;-87
2022/08/22 13:32:27;;;;;;;20.90;1.80;;;;;;;;;;1590344;89;20961;-89
2022/08/22 13:34:55;;;;;;;10.58;1.37;;;;;;;;;;1587312;89;21029;-85
2022/08/22 13:37:24;;;;;;;14.55;1.85;;;;;;;;;;1595316;89;21052;-82
2022/08/22 13:39:52;;;;;;;17.80;1.67;;;;;;;;;;1558383;91;21473;-82
2022/08/22 13:42:23;;;;;;;19.00;1.60;;;;;;;;;;1586854;89;21126;-82
2022/08/22 13:44:52;;;;;;;16.55;1.70;;;;;;;;;;1588205;89;21534;-86
2022/08/22 13:47:20;;;;;;;13.88;2.22;;;;;;;;;;1603285;89;21013;-88
2022/08/22 13:49:52;;;;;;;20.52;2.27;;;;;;;;;;1587122;89;21535;-89
2022/08/22 13:52:33;;;;;;;12.90;1.53;;;;;;;;;;1622660;85;21000;-83
2022/08/22 13:55:12;;;;;;;13.32;1.67;;;;;;;;;;1649781;85;20963;-91
2022/08/22 13:57:40;;;;;;;23.35;1.90;;;;;;;;;;1637677;87;20979;-86
2022/08/22 14:00:11;;;;;;;11.25;1.47;;;;;;;;;;1637712;87;21002;-83
2022/08/22 14:02:48;;;;;;;21.75;2.37;;;;;;;;;;1646449;85;22244;-84
2022/08/22 14:05:27;;;;;;;16.25;1.77;;;;;;;;;;1656836;84;20951;-83
2022/08/22 14:08:14;;;;;;;18.05;1.92;;;;;;;;;;1634734;87;20966;-85
2022/08/22 14:10:45;;;;;;;13.95;1.65;;;;;;;;;;1629751;87;20987;-81
2022/08/22 14:13:16;;;;;;;17.60;1.70;;;;;;;;;;1625304;88;21067;-82
2022/08/22 14:15:42;;;;;;;17.67;1.98;;;;;;;;;;1627330;88;21463;-85
2022/08/22 14:18:14;;;;;;;19.75;1.95;;;;;;;;;;1627479;88;21697;-84
2022/08/22 14:20:41;;;;;;;10.72;1.37;;;;;;;;;;1616446;88;21055;-84
2022/08/22 14:23:19;;;;;;;6.75;1.45;;;;;;;;;;1622185;88;20919;-83
2022/08/22 14:25:46;;;;;;;19.70;2.05;;;;;;;;;;1628313;87;21553;-85
2022/08/22 14:28:27;;;;;;;13.00;1.87;;;;;;;;;;1583371;85;20981;-85
2022/08/22 14:30:59;;;;;;;11.95;1.87;;;;;;;;;;1549813;91;21507;-85
2022/08/22 14:33:28;;;;;;;18.30;2.30;;;;;;;;;;1539685;91;21108;-85
2022/08/22 14:35:58;;;;;;;10.48;1.62;;;;;;;;;;1554361;91;21605;-83
2022/08/22 14:38:34;;;;;;;15.50;2.12;;;;;;;;;;1553053;91;21085;-84
2022/08/22 14:41:03;;;;;;;8.78;1.67;;;;;;;;;;1544504;91;21114;-86
2022/08/22 14:43:32;;;;;;;22.32;2.12;;;;;;;;;;1546211;92;21103;-83
2022/08/22 14:46:06;;;;;;;20.57;1.98;;;;;;;;;;1552126;91;21066;-86
2022/08/22 14:48:38;;;;;;;10.38;1.90;;;;;;;;;;1572829;91;21073;-87
2022/08/22 14:51:09;;;;;;;15.53;1.80;;;;;;;;;;1552388;92;20955;-84
2022/08/22 14:53:39;;;;;;;11.45;2.15;;;;;;;;;;1523309;92;21000;-86
2022/08/22 14:56:14;;;;;;;12.35;1.75;;;;;;;;;;1507399;93;21071;-83
2022/08/22 14:58:52;;;;;;;12.58;2.00;;;;;;;;;;1504718;94;21061;-85
2022/08/22 15:01:21;;;;;;;20.30;2.35;;;;;;;;;;1504595;95;21064;-85
2022/08/22 15:04:06;;;;;;;28.57;2.98;;;;;;;;;;1522611;92;21098;-84
2022/08/22 15:06:37;;;;;;;7.85;1.95;;;;;;;;;;1537322;91;21126;-88
2022/08/22 15:09:06;;;;;;;13.25;1.67;;;;;;;;;;1623144;86;21014;-87
2022/08/22 15:11:33;;;;;;;9.13;2.33;;;;;;;;;;1638841;85;21483;-88
2022/08/22 15:14:02;;;;;;;29.27;2.98;;;;;;;;;;1637596;86;20982;-84
2022/08/22 15:16:32;;;;;;;15.18;2.22;;;;;;;;;;1632348;86;20978;-85
2022/08/22 15:18:58;;;;;;;11.50;1.98;;;;;;;;;;1632908;85;21060;-85
2022/08/22 15:21:27;;;;;;;13.53;1.92;;;;;;;;;;1635760;86;21010;-85
2022/08/22 15:23:58;;;;;;;10.40;1.90;;;;;;;;;;1558667;92;21538;-86
2022/08/22 15:26:27;;;;;;;12.95;2.08;;;;;;;;;;1555658;90;21048;-85
2022/08/22 15:28:57;;;;;;;20.57;2.30;;;;;;;;;;1562241;90;21029;-83
2022/08/22 15:31:23;;;;;;;13.22;2.15;;;;;;;;;;1548218;91;21639;-85
2022/08/22 15:33:50;;;;;;;15.88;2.10;;;;;;;;;;1541724;92;21014;-82
2022/08/22 15:36:22;;;;;;;5.05;1.82;;;;;;;;;;1540566;92;21436;-84
2022/08/22 15:38:50;;;;;;;;;;;;;;;;;;1539178;91;21073;-86
2022/08/22 15:41:34;;;;;;;11.25;2.62;;;;;;;;;;1542767;92;20156;-86